createdAt,value
2018-10-05T00:01:08.029Z,98293.09
2018-10-05T00:03:38.241Z,98287.97
2018-10-05T00:06:08.041Z,98287.17
2018-10-05T00:08:37.964Z,98289.37
2018-10-05T00:11:07.860Z,98283.80
2018-10-05T00:13:37.979Z,98277.42
2018-10-05T00:16:07.493Z,98281.83
2018-10-05T00:18:37.140Z,98280.06
2018-10-05T00:21:06.733Z,98275.16
2018-10-05T00:23:36.387Z,98278.82
2018-10-05T00:26:06.120Z,98279.91
2018-10-05T00:28:36.212Z,98277.91
2018-10-05T00:31:06.096Z,98281.66
2018-10-05T00:33:35.858Z,98275.32
2018-10-05T00:36:05.536Z,98274.25
2018-10-05T00:38:35.577Z,98281.31
2018-10-05T00:41:05.340Z,98272.48
2018-10-05T00:43:35.384Z,98265.21
2018-10-05T00:46:05.076Z,98266.42
2018-10-05T00:48:35.150Z,98261.69
2018-10-05T00:51:04.782Z,98260.84
2018-10-05T00:53:34.723Z,98263.30
2018-10-05T00:56:04.536Z,98267.39
2018-10-05T00:58:34.167Z,98267.97
2018-10-05T01:01:03.857Z,98262.27
2018-10-05T01:03:33.816Z,98250.28
2018-10-05T01:06:03.756Z,98261.33
2018-10-05T01:08:33.488Z,98259.43
2018-10-05T01:11:03.624Z,98265.06
2018-10-05T01:13:33.324Z,98265.02
2018-10-05T01:16:03.045Z,98262.52
2018-10-05T01:18:32.625Z,98267.25
2018-10-05T01:21:02.436Z,98259.48
2018-10-05T01:23:32.243Z,98260.96
2018-10-05T01:26:01.862Z,98260.80
2018-10-05T01:28:32.069Z,98247.06
2018-10-05T01:31:01.645Z,98247.77
2018-10-05T01:33:31.333Z,98247.66
2018-10-05T01:36:01.164Z,98250.96
2018-10-05T01:38:30.832Z,98246.83
2018-10-05T01:41:00.512Z,98249.17
2018-10-05T01:43:30.152Z,98252.31
2018-10-05T01:46:00.066Z,98247.50
2018-10-05T01:48:30.052Z,98245.06
2018-10-05T01:50:59.721Z,98244.27
2018-10-05T01:53:29.716Z,98239.53
2018-10-05T01:55:59.340Z,98238.50
2018-10-05T01:58:28.968Z,98227.59
2018-10-05T02:00:58.600Z,98228.90
2018-10-05T02:03:28.264Z,98227.15
2018-10-05T02:05:58.111Z,98226.13
2018-10-05T02:08:28.120Z,98226.72
2018-10-05T02:10:58.100Z,98228.36
2018-10-05T02:13:27.740Z,98224.61
2018-10-05T02:15:57.436Z,98222.64
2018-10-05T02:18:27.060Z,98221.20
2018-10-05T02:20:56.685Z,98220.31
2018-10-05T02:23:26.333Z,98213.40
2018-10-05T02:25:56.781Z,98215.54
2018-10-05T02:28:26.504Z,98204.80
2018-10-05T02:30:56.216Z,98207.00
2018-10-05T02:33:25.888Z,98211.17
2018-10-05T02:35:56.303Z,98211.23
2018-10-05T02:38:25.884Z,98206.78
2018-10-05T02:40:55.558Z,98207.09
2018-10-05T02:43:25.508Z,98200.42
2018-10-05T02:45:55.080Z,98202.02
2018-10-05T02:48:24.791Z,98206.96
2018-10-05T02:50:54.699Z,98197.50
2018-10-05T02:53:24.408Z,98199.20
2018-10-05T02:55:54.120Z,98202.72
2018-10-05T02:58:24.159Z,98194.78
2018-10-05T03:01:04.923Z,98195.91
2018-10-05T03:03:34.931Z,98195.73
2018-10-05T03:06:05.260Z,98189.46
2018-10-05T03:08:34.856Z,98193.52
2018-10-05T03:11:04.529Z,98200.61
2018-10-05T03:13:34.271Z,98198.86
2018-10-05T03:16:05.551Z,98195.03
2018-10-05T03:18:37.145Z,98191.86
2018-10-05T03:21:06.883Z,98190.77
2018-10-05T03:23:37.467Z,98192.84
2018-10-05T03:26:07.176Z,98189.45
2018-10-05T03:28:37.285Z,98192.38
2018-10-05T03:31:07.012Z,98195.37
2018-10-05T03:33:36.648Z,98190.14
2018-10-05T03:36:06.625Z,98192.08
2018-10-05T03:38:36.572Z,98191.64
2018-10-05T03:41:06.244Z,98191.27
2018-10-05T03:43:35.888Z,98192.70
2018-10-05T03:46:06.035Z,98189.56
2018-10-05T03:48:35.724Z,98193.94
2018-10-05T03:51:05.490Z,98193.25
2018-10-05T03:53:35.093Z,98194.02
2018-10-05T03:56:05.143Z,98188.64
2018-10-05T03:58:34.840Z,98191.78
2018-10-05T04:01:04.612Z,98191.05
2018-10-05T04:03:34.560Z,98194.70
2018-10-05T04:06:04.385Z,98191.95
2018-10-05T04:08:34.248Z,98191.84
2018-10-05T04:11:03.868Z,98202.27
2018-10-05T04:13:33.508Z,98199.83
2018-10-05T04:16:03.548Z,98210.25
2018-10-05T04:18:33.440Z,98206.71
2018-10-05T04:21:03.143Z,98205.02
2018-10-05T04:23:32.908Z,98209.59
2018-10-05T04:26:02.585Z,98200.88
2018-10-05T04:28:32.612Z,98200.14
2018-10-05T04:31:02.239Z,98200.20
2018-10-05T04:33:31.832Z,98203.88
2018-10-05T04:36:02.380Z,98205.91
2018-10-05T04:38:32.353Z,98209.58
2018-10-05T04:41:02.095Z,98212.39
2018-10-05T04:43:31.763Z,98209.39
2018-10-05T04:46:01.333Z,98207.47
2018-10-05T04:48:31.023Z,98211.23
2018-10-05T04:51:00.685Z,98215.56
2018-10-05T04:53:30.388Z,98220.30
2018-10-05T04:56:00.343Z,98221.80
2018-10-05T04:58:30.004Z,98221.79
2018-10-05T05:00:59.685Z,98228.06
2018-10-05T05:03:29.625Z,98223.52
2018-10-05T05:05:59.307Z,98226.60
2018-10-05T05:08:29.010Z,98227.12
2018-10-05T05:10:58.722Z,98231.16
2018-10-05T05:13:28.366Z,98232.39
2018-10-05T05:15:58.370Z,98232.56
2018-10-05T05:18:27.981Z,98227.57
2018-10-05T05:20:58.140Z,98226.72
2018-10-05T05:23:27.815Z,98229.86
2018-10-05T05:25:57.477Z,98230.05
2018-10-05T05:28:27.043Z,98239.96
2018-10-05T05:30:56.728Z,98246.73
2018-10-05T05:33:26.475Z,98249.14
2018-10-05T05:35:56.105Z,98250.90
2018-10-05T05:38:25.730Z,98251.30
2018-10-05T05:40:55.448Z,98257.63
2018-10-05T05:43:25.177Z,98259.87
2018-10-05T05:45:54.765Z,98260.81
2018-10-05T05:48:24.951Z,98258.79
2018-10-05T05:50:54.696Z,98266.21
2018-10-05T05:53:24.381Z,98266.21
2018-10-05T05:55:54.104Z,98271.70
2018-10-05T05:58:23.818Z,98266.98
2018-10-05T06:00:53.505Z,98272.55
2018-10-05T06:03:23.552Z,98277.75
2018-10-05T06:05:53.118Z,98275.25
2018-10-05T06:08:22.960Z,98271.48
2018-10-05T06:10:52.664Z,98271.28
2018-10-05T06:13:22.228Z,98276.03
2018-10-05T06:15:51.907Z,98280.45
2018-10-05T06:18:21.520Z,98278.69
2018-10-05T06:20:51.528Z,98275.12
2018-10-05T06:23:21.176Z,98278.69
2018-10-05T06:25:50.882Z,98271.37
2018-10-05T06:28:20.627Z,98272.02
2018-10-05T06:30:50.336Z,98273.94
2018-10-05T06:33:19.960Z,98276.56
2018-10-05T06:35:49.639Z,98275.12
2018-10-05T06:38:19.347Z,98274.64
2018-10-05T06:40:49.058Z,98286.00
2018-10-05T06:43:18.744Z,98276.05
2018-10-05T06:45:48.436Z,98279.33
2018-10-05T06:48:18.216Z,98277.78
2018-10-05T06:50:47.908Z,98281.45
2018-10-05T06:53:17.608Z,98281.34
2018-10-05T06:55:47.172Z,98282.39
2018-10-05T06:58:16.904Z,98281.55
2018-10-05T07:00:46.622Z,98276.22
2018-10-05T07:03:16.256Z,98273.63
2018-10-05T07:05:46.092Z,98287.31
2018-10-05T07:08:15.705Z,98285.18
2018-10-05T07:10:45.368Z,98283.86
2018-10-05T07:13:15.061Z,98284.53
2018-10-05T07:15:44.775Z,98291.01
2018-10-05T07:18:14.469Z,98281.47
2018-10-05T07:20:44.163Z,98282.41
2018-10-05T07:23:13.819Z,98274.21
2018-10-05T07:25:43.496Z,98280.75
2018-10-05T07:28:13.258Z,98280.85
2018-10-05T07:30:43.153Z,98281.16
2018-10-05T07:33:12.845Z,98280.69
2018-10-05T07:35:42.389Z,98276.03
2018-10-05T07:38:12.070Z,98275.09
2018-10-05T07:40:41.581Z,98272.55
2018-10-05T07:43:11.137Z,98273.03
2018-10-05T07:45:40.752Z,98263.38
2018-10-05T07:48:10.425Z,98270.13
2018-10-05T07:50:40.055Z,98265.82
2018-10-05T07:53:09.864Z,98263.17
2018-10-05T07:55:39.569Z,98260.48
2018-10-05T07:58:09.249Z,98261.67
2018-10-05T08:00:39.026Z,98263.17
2018-10-05T08:03:08.700Z,98262.80
2018-10-05T08:05:38.340Z,98260.48
2018-10-05T08:08:08.320Z,98254.04
2018-10-05T08:10:38.009Z,98250.47
2018-10-05T08:13:07.687Z,98236.22
2018-10-05T08:15:37.353Z,98229.58
2018-10-05T08:18:07.221Z,98226.41
2018-10-05T08:20:36.933Z,98226.78
2018-10-05T08:23:06.676Z,98223.31
2018-10-05T08:25:36.320Z,98225.91
2018-10-05T08:28:05.948Z,98218.49
2018-10-05T08:30:36.001Z,98217.50
2018-10-05T08:33:05.956Z,98208.08
2018-10-05T08:35:35.616Z,98208.64
2018-10-05T08:38:05.576Z,98206.36
2018-10-05T08:40:35.240Z,98208.27
2018-10-05T08:43:04.853Z,98206.42
2018-10-05T08:45:34.604Z,98199.78
2018-10-05T08:48:04.284Z,98195.64
2018-10-05T08:50:33.964Z,98194.66
2018-10-05T08:53:03.680Z,98192.84
2018-10-05T08:55:33.371Z,98198.44
2018-10-05T08:58:05.513Z,98198.12
2018-10-05T09:00:36.064Z,98196.11
2018-10-05T09:03:05.780Z,98191.95
2018-10-05T09:05:35.530Z,98181.95
2018-10-05T09:08:05.552Z,98179.73
2018-10-05T09:10:35.228Z,98182.83
2018-10-05T09:13:05.020Z,98173.41
2018-10-05T09:15:35.049Z,98173.78
2018-10-05T09:18:04.774Z,98179.78
2018-10-05T09:20:34.612Z,98176.81
2018-10-05T09:23:04.271Z,98172.79
2018-10-05T09:25:33.982Z,98171.33
2018-10-05T09:28:03.684Z,98180.08
2018-10-05T09:30:33.391Z,98180.28
2018-10-05T09:33:03.048Z,98185.67
2018-10-05T09:35:32.704Z,98184.02
2018-10-05T09:38:03.196Z,98187.39
2018-10-05T09:40:32.812Z,98187.48
2018-10-05T09:43:02.421Z,98182.58
2018-10-05T09:45:32.336Z,98184.48
2018-10-05T09:48:01.936Z,98178.44
2018-10-05T09:50:31.799Z,98180.14
2018-10-05T09:53:01.541Z,98180.92
2018-10-05T09:55:31.329Z,98173.72
2018-10-05T09:58:01.152Z,98180.55
2018-10-05T10:01:34.924Z,98173.26
2018-10-05T10:04:04.698Z,98170.56
2018-10-05T10:06:34.436Z,98162.70
2018-10-05T10:09:04.540Z,98158.66
2018-10-05T10:11:34.238Z,98161.05
2018-10-05T10:14:04.328Z,98158.08
2018-10-05T10:16:33.950Z,98162.12
2018-10-05T10:19:03.689Z,98148.03
2018-10-05T10:21:33.528Z,98144.97
2018-10-05T10:24:03.245Z,98144.67
2018-10-05T10:26:32.812Z,98142.96
2018-10-05T10:29:02.454Z,98137.46
2018-10-05T10:31:32.060Z,98133.42
2018-10-05T10:34:01.641Z,98138.23
2018-10-05T10:36:31.233Z,98134.98
2018-10-05T10:39:01.184Z,98131.51
2018-10-05T10:41:30.858Z,98128.16
2018-10-05T10:44:00.536Z,98129.39
2018-10-05T10:46:30.179Z,98124.21
2018-10-05T10:49:00.001Z,98119.61
2018-10-05T10:51:29.656Z,98129.50
2018-10-05T10:53:59.614Z,98124.58
2018-10-05T10:56:29.860Z,98122.10
2018-10-05T10:58:59.544Z,98119.98
2018-10-05T11:01:29.211Z,98112.88
2018-10-05T11:03:58.829Z,98116.50
2018-10-05T11:06:28.566Z,98111.52
2018-10-05T11:08:58.232Z,98106.98
2018-10-05T11:11:27.912Z,98105.73
2018-10-05T11:13:57.616Z,98103.92
2018-10-05T11:16:27.253Z,98097.45
2018-10-05T11:18:56.893Z,98081.86
2018-10-05T11:21:26.601Z,98088.44
2018-10-05T11:23:56.276Z,98085.64
2018-10-05T11:26:26.025Z,98083.05
2018-10-05T11:28:55.696Z,98076.69
2018-10-05T11:31:25.404Z,98069.48
2018-10-05T11:33:55.044Z,98064.27
2018-10-05T11:36:24.839Z,98063.02
2018-10-05T11:38:54.484Z,98067.06
2018-10-05T11:41:24.165Z,98067.06
2018-10-05T11:43:53.836Z,98059.76
2018-10-05T11:46:23.508Z,98055.42
2018-10-05T11:48:53.208Z,98050.91
2018-10-05T11:51:22.651Z,98054.07
2018-10-05T11:53:52.248Z,98051.31
2018-10-05T11:56:21.742Z,98046.88
2018-10-05T11:58:51.263Z,98043.80
2018-10-05T12:01:21.309Z,98047.75
2018-10-05T12:03:50.928Z,98043.88
2018-10-05T12:06:20.589Z,98041.95
2018-10-05T12:08:50.647Z,98036.36
2018-10-05T12:11:20.391Z,98028.96
2018-10-05T12:13:50.050Z,98027.92
2018-10-05T12:16:19.838Z,98028.80
2018-10-05T12:18:49.609Z,98034.45
2018-10-05T12:21:19.221Z,98022.39
2018-10-05T12:23:48.900Z,98015.36
2018-10-05T12:26:19.683Z,98010.63
2018-10-05T12:28:49.717Z,98002.25
2018-10-05T12:31:19.574Z,97992.66
2018-10-05T12:33:49.432Z,97993.56
2018-10-05T12:36:19.386Z,97995.28
2018-10-05T12:38:49.525Z,97998.44
2018-10-05T12:41:19.253Z,97988.72
2018-10-05T12:43:49.496Z,97985.75
2018-10-05T12:46:19.240Z,97981.28
2018-10-05T12:48:48.848Z,97973.47
2018-10-05T12:51:18.560Z,97976.94
2018-10-05T12:53:48.219Z,97978.91
2018-10-05T12:56:17.796Z,97982.03
2018-10-05T12:58:47.750Z,97972.19
2018-10-05T13:01:17.533Z,97969.38
2018-10-05T13:03:47.160Z,97969.78
2018-10-05T13:06:16.805Z,97964.01
2018-10-05T13:08:46.499Z,97959.75
2018-10-05T13:11:16.449Z,97952.56
2018-10-05T13:13:46.162Z,97950.23
2018-10-05T13:16:16.119Z,97944.02
2018-10-05T13:18:45.875Z,97937.97
2018-10-05T13:21:15.569Z,97934.73
2018-10-05T13:23:45.249Z,97934.84
2018-10-05T13:26:14.937Z,97929.41
2018-10-05T13:28:44.663Z,97928.74
2018-10-05T13:31:14.275Z,97919.38
2018-10-05T13:33:44.014Z,97923.46
2018-10-05T13:36:13.788Z,97928.06
2018-10-05T13:38:44.683Z,97923.19
2018-10-05T13:41:14.671Z,97920.36
2018-10-05T13:43:44.556Z,97917.16
2018-10-05T13:46:14.541Z,97917.92
2018-10-05T13:48:44.317Z,97915.81
2018-10-05T13:51:14.027Z,97910.99
2018-10-05T13:53:44.359Z,97907.53
2018-10-05T13:56:14.317Z,97908.97
2018-10-05T13:58:43.881Z,97913.20
2018-10-05T14:01:13.956Z,97914.17
2018-10-05T14:03:44.194Z,97909.03
2018-10-05T14:06:13.888Z,97909.22
2018-10-05T14:08:43.512Z,97900.55
2018-10-05T14:11:13.239Z,97904.55
2018-10-05T14:13:42.899Z,97900.11
2018-10-05T14:16:12.843Z,97907.23
2018-10-05T14:18:42.449Z,97901.53
2018-10-05T14:21:12.088Z,97904.14
2018-10-05T14:23:42.060Z,97906.44
2018-10-05T14:26:11.800Z,97899.00
2018-10-05T14:28:41.448Z,97897.41
2018-10-05T14:31:11.157Z,97892.13
2018-10-05T14:33:42.102Z,97895.31
2018-10-05T14:36:12.081Z,97893.94
2018-10-05T14:38:41.583Z,97888.23
2018-10-05T14:41:11.262Z,97886.35
2018-10-05T14:43:40.924Z,97891.06
2018-10-05T14:46:10.499Z,97885.91
2018-10-05T14:48:40.400Z,97884.86
2018-10-05T14:51:10.324Z,97891.03
2018-10-05T14:53:40.448Z,97890.23
2018-10-05T14:56:10.384Z,97887.60
2018-10-05T14:58:40.150Z,97887.26
2018-10-05T15:01:10.120Z,97890.94
2018-10-05T15:03:40.072Z,97895.03
2018-10-05T15:06:09.841Z,97893.16
2018-10-05T15:08:39.519Z,97894.25
2018-10-05T15:11:09.220Z,97899.34
2018-10-05T15:13:38.888Z,97894.84
2018-10-05T15:16:08.532Z,97894.46
2018-10-05T15:18:38.169Z,97895.50
2018-10-05T15:21:07.702Z,97891.27
2018-10-05T15:23:37.348Z,97892.55
2018-10-05T15:26:06.911Z,97895.45
2018-10-05T15:28:36.484Z,97897.42
2018-10-05T15:31:06.115Z,97902.09
2018-10-05T15:33:35.874Z,97898.75
2018-10-05T15:36:05.677Z,97904.23
2018-10-05T15:38:35.391Z,97900.68
2018-10-05T15:41:05.088Z,97905.58
2018-10-05T15:43:34.810Z,97907.23
2018-10-05T15:46:06.728Z,97900.62
2018-10-05T15:48:36.801Z,97897.99
2018-10-05T15:51:06.819Z,97903.77
2018-10-05T15:53:36.548Z,97902.33
2018-10-05T15:56:06.164Z,97904.70
2018-10-05T15:58:35.820Z,97905.11
2018-10-05T16:01:05.383Z,97905.48
2018-10-05T16:03:35.035Z,97911.36
2018-10-05T16:06:04.849Z,97908.73
2018-10-05T16:08:34.677Z,97907.18
2018-10-05T16:11:04.368Z,97904.37
2018-10-05T16:13:33.968Z,97898.44
2018-10-05T16:16:03.948Z,97899.53
2018-10-05T16:18:33.693Z,97896.41
2018-10-05T16:21:03.689Z,97898.97
2018-10-05T16:23:33.416Z,97903.22
2018-10-05T16:26:03.060Z,97905.28
2018-10-05T16:28:32.744Z,97904.34
2018-10-05T16:31:02.312Z,97909.73
2018-10-05T16:33:31.956Z,97911.43
2018-10-05T16:36:01.673Z,97916.96
2018-10-05T16:38:31.701Z,97913.30
2018-10-05T16:41:01.437Z,97915.42
2018-10-05T16:43:31.149Z,97908.94
2018-10-05T16:46:00.832Z,97910.74
2018-10-05T16:48:30.684Z,97905.94
2018-10-05T16:51:00.544Z,97916.42
2018-10-05T16:53:30.856Z,97922.83
2018-10-05T16:56:00.513Z,97922.14
2018-10-05T16:58:30.524Z,97923.61
2018-10-05T17:01:00.236Z,97921.02
2018-10-05T17:03:29.970Z,97925.08
2018-10-05T17:05:59.512Z,97922.11
2018-10-05T17:08:30.796Z,97924.36
2018-10-05T17:11:00.469Z,97925.52
2018-10-05T17:13:30.033Z,97936.52
2018-10-05T17:15:59.706Z,97927.05
2018-10-05T17:18:29.452Z,97925.30
2018-10-05T17:20:59.128Z,97929.61
2018-10-05T17:23:29.172Z,97930.45
2018-10-05T17:25:59.133Z,97928.27
2018-10-05T17:28:29.075Z,97930.55
2018-10-05T17:30:58.868Z,97926.83
2018-10-05T17:33:28.839Z,97928.95
2018-10-05T17:35:58.518Z,97937.39
2018-10-05T17:38:28.314Z,97937.39
2018-10-05T17:40:57.972Z,97945.16
2018-10-05T17:43:27.937Z,97939.38
2018-10-05T17:45:58.200Z,97939.38
2018-10-05T17:48:28.128Z,97932.86
2018-10-05T17:50:57.844Z,97932.55
2018-10-05T17:53:27.478Z,97940.26
2018-10-05T17:55:57.476Z,97940.81
2018-10-05T17:58:27.405Z,97945.38
2018-10-05T18:00:56.920Z,97939.83
2018-10-05T18:03:26.720Z,97947.58
2018-10-05T18:05:56.441Z,97951.82
2018-10-05T18:08:26.492Z,97949.04
2018-10-05T18:10:56.200Z,97949.66
2018-10-05T18:13:25.888Z,97955.47
2018-10-05T18:17:55.818Z,97964.55
2018-10-05T18:20:26.230Z,97963.05
2018-10-05T18:22:55.937Z,97959.90
2018-10-05T18:25:25.957Z,97962.72
2018-10-05T18:27:56.981Z,97959.23
2018-10-05T18:30:26.653Z,97968.16
2018-10-05T18:32:56.696Z,97962.22
2018-10-05T18:36:30.221Z,97967.08
2018-10-05T18:39:00.173Z,97969.80
2018-10-05T18:41:30.057Z,97969.38
2018-10-05T18:43:59.872Z,97964.39
2018-10-05T18:46:30.029Z,97970.88
2018-10-05T18:49:00.329Z,97960.31
2018-10-05T18:51:30.865Z,97956.95
2018-10-05T18:54:00.748Z,97952.80
2018-10-05T18:56:41.420Z,97957.04
2018-10-05T18:59:11.200Z,97962.81
2018-10-05T19:01:41.323Z,97947.00
2018-10-05T19:04:10.947Z,97953.66
2018-10-05T19:06:40.682Z,97953.50
2018-10-05T19:09:10.582Z,97949.53
2018-10-05T19:11:40.337Z,97947.00
2018-10-05T19:14:10.021Z,97949.09
2018-10-05T19:16:39.664Z,97945.28
2018-10-05T19:19:10.274Z,97944.46
2018-10-05T19:21:40.495Z,97939.38
2018-10-05T19:24:16.144Z,97935.97
2018-10-05T19:26:45.888Z,97932.44
2018-10-05T19:29:15.810Z,97927.09
2018-10-05T19:31:46.748Z,97925.03
2018-10-05T19:34:16.871Z,97917.82
2018-10-05T19:36:46.803Z,97918.35
2018-10-05T19:39:16.609Z,97921.95
2018-10-05T19:41:46.206Z,97912.09
2018-10-05T19:44:16.098Z,97914.94
2018-10-05T19:46:45.858Z,97907.35
2018-10-05T19:49:15.593Z,97906.69
2018-10-05T19:51:45.326Z,97894.78
2018-10-05T19:54:15.211Z,97895.61
2018-10-05T19:56:44.984Z,97882.25
2018-10-05T19:59:14.657Z,97888.34
2018-10-05T20:01:44.680Z,97895.25
2018-10-05T20:04:14.088Z,97895.14
2018-10-05T20:06:43.780Z,97889.59
2018-10-05T20:09:13.680Z,97902.56
2018-10-05T20:11:43.391Z,97900.93
2018-10-05T20:14:13.997Z,97894.28
2018-10-05T20:16:44.037Z,97893.89
2018-10-05T20:19:14.164Z,97893.98
2018-10-05T20:21:43.841Z,97886.79
2018-10-05T20:24:13.570Z,97885.48
2018-10-05T20:26:43.847Z,97885.62
2018-10-05T20:29:13.802Z,97881.37
2018-10-05T20:31:43.587Z,97884.36
2018-10-05T20:34:13.652Z,97875.44
2018-10-05T20:36:43.572Z,97884.98
2018-10-05T20:39:13.481Z,97880.89
2018-10-05T20:41:43.066Z,97886.20
2018-10-05T20:44:12.979Z,97881.77
2018-10-05T20:46:42.688Z,97889.55
2018-10-05T20:49:12.332Z,97890.25
2018-10-05T20:51:42.217Z,97898.14
2018-10-05T20:54:11.891Z,97900.50
2018-10-05T20:56:41.564Z,97897.65
2018-10-05T20:59:11.312Z,97895.91
2018-10-05T21:01:41.088Z,97903.33
2018-10-05T21:04:10.839Z,97901.89
2018-10-05T21:06:40.552Z,97900.98
2018-10-05T21:09:11.096Z,97900.01
2018-10-05T21:11:40.841Z,97895.66
2018-10-05T21:14:10.579Z,97894.48
2018-10-05T21:16:40.599Z,97894.42
2018-10-05T21:19:10.294Z,97891.58
2018-10-05T21:21:40.624Z,97891.58
2018-10-05T21:24:10.536Z,97891.52
2018-10-05T21:26:40.142Z,97891.06
2018-10-05T21:29:09.852Z,97886.58
2018-10-05T21:31:39.542Z,97882.56
2018-10-05T21:34:09.373Z,97879.36
2018-10-05T21:36:39.075Z,97873.02
2018-10-05T21:39:10.339Z,97870.83
2018-10-05T21:41:40.169Z,97871.84
2018-10-05T21:44:09.800Z,97872.84
2018-10-05T21:46:39.548Z,97865.36
2018-10-05T21:49:09.280Z,97870.75
2018-10-05T21:51:38.933Z,97863.93
2018-10-05T21:54:08.807Z,97858.17
2018-10-05T21:56:38.442Z,97858.22
2018-10-05T21:59:08.124Z,97855.88
2018-10-05T22:01:37.760Z,97849.78
2018-10-05T22:04:07.524Z,97853.90
2018-10-05T22:06:37.209Z,97848.95
2018-10-05T22:09:09.385Z,97849.47
2018-10-05T22:11:39.227Z,97845.80
2018-10-05T22:14:10.456Z,97847.89
2018-10-05T22:16:40.166Z,97845.17
2018-10-05T22:19:09.808Z,97843.09
2018-10-05T22:21:39.904Z,97840.60
2018-10-05T22:24:09.491Z,97832.79
2018-10-05T22:26:39.400Z,97823.27
2018-10-05T22:29:09.053Z,97834.20
2018-10-05T22:31:38.908Z,97831.95
2018-10-05T22:34:08.692Z,97830.72
2018-10-05T22:36:38.473Z,97832.08
2018-10-05T22:39:09.371Z,97829.23
2018-10-05T22:41:39.024Z,97823.56
2018-10-05T22:44:09.031Z,97823.44
2018-10-05T22:46:38.644Z,97829.28
2018-10-05T22:49:08.697Z,97829.98
2018-10-05T22:51:38.588Z,97826.97
2018-10-05T22:54:08.736Z,97834.58
2018-10-05T22:56:38.400Z,97830.84
2018-10-05T22:59:08.152Z,97830.73
2018-10-05T23:01:37.817Z,97826.77
2018-10-05T23:04:07.460Z,97828.05
2018-10-05T23:06:37.168Z,97823.73
2018-10-05T23:09:08.384Z,97824.45
2018-10-05T23:11:38.424Z,97825.81
2018-10-05T23:14:08.152Z,97830.50
2018-10-05T23:16:37.976Z,97831.30
2018-10-05T23:19:07.812Z,97838.33
2018-10-05T23:21:37.524Z,97830.03
2018-10-05T23:24:07.279Z,97825.66
2018-10-05T23:26:37.000Z,97818.38
2018-10-05T23:29:06.556Z,97820.42
2018-10-05T23:31:36.199Z,97811.88
2018-10-05T23:34:05.875Z,97818.77
2018-10-05T23:36:35.572Z,97817.69
2018-10-05T23:39:06.862Z,97825.27
2018-10-05T23:41:36.528Z,97825.90
2018-10-05T23:44:08.224Z,97818.36
2018-10-05T23:46:37.922Z,97810.03
2018-10-05T23:49:07.600Z,97811.05
2018-10-05T23:51:37.763Z,97807.07
2018-10-05T23:54:07.869Z,97801.61
2018-10-05T23:56:37.565Z,97805.20
2018-10-05T23:59:07.313Z,97794.86
